sensor_id;sensor_type;location;lat;lon;timestamp;pressure;altitude;pressure_sealevel;temperature;humidity
44825;BME280;30542;47.928;2.138;2023-05-22T00:04:37;100368.09;;;21.51;49.77
44825;BME280;30542;47.928;2.138;2023-05-22T00:09:39;100364.63;;;21.51;49.94
44825;BME280;30542;47.928;2.138;2023-05-22T00:14:39;100354.69;;;21.51;49.77
44825;BME280;30542;47.928;2.138;2023-05-22T00:19:39;100341.59;;;21.50;49.94
44825;BME280;30542;47.928;2.138;2023-05-22T00:24:40;100343.19;;;21.51;49.82
44825;BME280;30542;47.928;2.138;2023-05-22T00:29:40;100341.59;;;21.50;49.90
44825;BME280;30542;47.928;2.138;2023-05-22T00:34:41;100344.25;;;21.50;49.87
44825;BME280;30542;47.928;2.138;2023-05-22T00:39:41;100348.81;;;21.49;49.81
44825;BME280;30542;47.928;2.138;2023-05-22T00:44:41;100348.03;;;21.49;50.01
44825;BME280;30542;47.928;2.138;2023-05-22T00:49:42;100351.50;;;21.49;49.87
44825;BME280;30542;47.928;2.138;2023-05-22T00:54:43;100342.66;;;21.49;49.91
44825;BME280;30542;47.928;2.138;2023-05-22T00:59:43;100335.44;;;21.49;49.97
44825;BME280;30542;47.928;2.138;2023-05-22T01:04:47;100328.47;;;21.48;49.93
44825;BME280;30542;47.928;2.138;2023-05-22T01:09:47;100324.97;;;21.48;49.83
44825;BME280;30542;47.928;2.138;2023-05-22T01:14:57;100333.28;;;21.46;49.94
44825;BME280;30542;47.928;2.138;2023-05-22T01:20:13;100349.38;;;21.46;49.85
44825;BME280;30542;47.928;2.138;2023-05-22T01:31:00;100354.72;;;21.46;49.82
44825;BME280;30542;47.928;2.138;2023-05-22T01:36:02;100352.03;;;21.46;50.03
44825;BME280;30542;47.928;2.138;2023-05-22T01:41:06;100349.66;;;21.45;49.96
44825;BME280;30542;47.928;2.138;2023-05-22T01:46:07;100344.03;;;21.41;50.11
44825;BME280;30542;47.928;2.138;2023-05-22T01:56:52;100348.84;;;21.44;49.93
44825;BME280;30542;47.928;2.138;2023-05-22T02:01:55;100340.81;;;21.44;50.04
44825;BME280;30542;47.928;2.138;2023-05-22T02:06:58;100354.22;;;21.44;50.04
44825;BME280;30542;47.928;2.138;2023-05-22T02:12:00;100345.34;;;21.44;50.01
44825;BME280;30542;47.928;2.138;2023-05-22T02:17:00;100343.50;;;21.44;49.98
44825;BME280;30542;47.928;2.138;2023-05-22T02:22:01;100350.69;;;21.44;50.10
44825;BME280;30542;47.928;2.138;2023-05-22T02:27:01;100347.22;;;21.43;49.96
44825;BME280;30542;47.928;2.138;2023-05-22T02:32:03;100334.94;;;21.37;50.06
44825;BME280;30542;47.928;2.138;2023-05-22T02:37:04;100351.78;;;21.43;50.14
44825;BME280;30542;47.928;2.138;2023-05-22T02:42:04;100354.22;;;21.44;49.62
44825;BME280;30542;47.928;2.138;2023-05-22T02:47:05;100349.66;;;21.45;50.17
44825;BME280;30542;47.928;2.138;2023-05-22T02:52:06;100357.69;;;21.45;50.14
44825;BME280;30542;47.928;2.138;2023-05-22T02:57:06;100342.97;;;21.37;50.03
44825;BME280;30542;47.928;2.138;2023-05-22T03:02:06;100350.97;;;21.42;49.96
44825;BME280;30542;47.928;2.138;2023-05-22T03:07:07;100356.34;;;21.42;50.00
44825;BME280;30542;47.928;2.138;2023-05-22T03:12:08;100363.88;;;21.40;50.18
44825;BME280;30542;47.928;2.138;2023-05-22T03:17:08;100369.22;;;21.40;50.10
44825;BME280;30542;47.928;2.138;2023-05-22T03:22:09;100361.19;;;21.40;50.17
44825;BME280;30542;47.928;2.138;2023-05-22T03:27:12;100355.81;;;21.40;50.26
44825;BME280;30542;47.928;2.138;2023-05-22T03:32:13;100346.16;;;21.39;50.20
44825;BME280;30542;47.928;2.138;2023-05-22T03:37:13;100348.03;;;21.39;50.15
44825;BME280;30542;47.928;2.138;2023-05-22T03:42:14;100350.72;;;21.39;50.12
44825;BME280;30542;47.928;2.138;2023-05-22T03:47:15;100360.63;;;21.38;50.20
44825;BME280;30542;47.928;2.138;2023-05-22T03:52:15;100369.75;;;21.37;50.12
44825;BME280;30542;47.928;2.138;2023-05-22T03:57:16;100375.91;;;21.38;50.23
44825;BME280;30542;47.928;2.138;2023-05-22T04:02:18;100372.44;;;21.37;50.14
44825;BME280;30542;47.928;2.138;2023-05-22T04:07:19;100365.47;;;21.36;50.14
44825;BME280;30542;47.928;2.138;2023-05-22T04:12:19;100371.91;;;21.35;50.08
44825;BME280;30542;47.928;2.138;2023-05-22T04:17:19;100381.81;;;21.34;50.09
44825;BME280;30542;47.928;2.138;2023-05-22T04:22:20;100381.81;;;21.34;50.24
44825;BME280;30542;47.928;2.138;2023-05-22T04:27:21;100378.06;;;21.35;50.09
44825;BME280;30542;47.928;2.138;2023-05-22T04:32:22;100371.09;;;21.34;50.19
44825;BME280;30542;47.928;2.138;2023-05-22T04:37:23;100380.72;;;21.35;50.13
44825;BME280;30542;47.928;2.138;2023-05-22T04:42:25;100373.25;;;21.32;50.31
44825;BME280;30542;47.928;2.138;2023-05-22T04:47:27;100376.44;;;21.34;50.23
44825;BME280;30542;47.928;2.138;2023-05-22T04:52:33;100384.78;;;21.33;50.39
44825;BME280;30542;47.928;2.138;2023-05-22T04:57:33;100390.13;;;21.33;50.13
44825;BME280;30542;47.928;2.138;2023-05-22T05:02:34;100377.81;;;21.32;49.89
44825;BME280;30542;47.928;2.138;2023-05-22T05:07:38;100380.50;;;21.32;50.07
44825;BME280;30542;47.928;2.138;2023-05-22T05:12:38;100370.78;;;21.31;50.47
44825;BME280;30542;47.928;2.138;2023-05-22T05:17:39;100370.78;;;21.31;50.18
44825;BME280;30542;47.928;2.138;2023-05-22T05:22:40;100366.53;;;21.30;50.06
44825;BME280;30542;47.928;2.138;2023-05-22T05:27:40;100370.00;;;21.30;50.28
44825;BME280;30542;47.928;2.138;2023-05-22T05:32:40;100374.56;;;21.30;50.09
44825;BME280;30542;47.928;2.138;2023-05-22T05:37:41;100386.06;;;21.30;50.15
44825;BME280;30542;47.928;2.138;2023-05-22T05:42:42;100389.84;;;21.29;49.91
44825;BME280;30542;47.928;2.138;2023-05-22T05:47:42;100397.06;;;21.29;50.12
44825;BME280;30542;47.928;2.138;2023-05-22T05:52:43;100399.75;;;21.29;50.57
44825;BME280;30542;47.928;2.138;2023-05-22T05:57:43;100409.66;;;21.28;50.00
44825;BME280;30542;47.928;2.138;2023-05-22T06:02:43;100419.59;;;21.28;50.01
44825;BME280;30542;47.928;2.138;2023-05-22T06:07:46;100400.81;;;21.23;50.20
44825;BME280;30542;47.928;2.138;2023-05-22T06:12:47;100406.19;;;21.28;49.98
44825;BME280;30542;47.928;2.138;2023-05-22T06:17:47;100411.78;;;21.26;50.21
44825;BME280;30542;47.928;2.138;2023-05-22T06:22:48;100408.03;;;21.27;50.29
44825;BME280;30542;47.928;2.138;2023-05-22T06:27:48;100411.78;;;21.26;51.02
44825;BME280;30542;47.928;2.138;2023-05-22T06:32:48;100426.53;;;21.29;50.93
44825;BME280;30542;47.928;2.138;2023-05-22T06:37:49;100433.50;;;21.30;50.81
44825;BME280;30542;47.928;2.138;2023-05-22T06:42:49;100435.66;;;21.28;49.88
44825;BME280;30542;47.928;2.138;2023-05-22T06:47:53;100441.53;;;21.25;49.67
44825;BME280;30542;47.928;2.138;2023-05-22T06:52:53;100445.84;;;21.21;49.12
44825;BME280;30542;47.928;2.138;2023-05-22T06:57:53;100440.47;;;21.21;49.22
44825;BME280;30542;47.928;2.138;2023-05-22T07:02:54;100434.84;;;21.17;49.22
44825;BME280;30542;47.928;2.138;2023-05-22T07:07:54;100441.00;;;21.18;49.24
44825;BME280;30542;47.928;2.138;2023-05-22T07:12:54;100436.72;;;21.17;49.07
44825;BME280;30542;47.928;2.138;2023-05-22T07:17:55;100445.28;;;21.19;48.84
44825;BME280;30542;47.928;2.138;2023-05-22T07:22:55;100451.19;;;21.21;48.72
44825;BME280;30542;47.928;2.138;2023-05-22T07:27:57;100457.88;;;21.23;48.70
44825;BME280;30542;47.928;2.138;2023-05-22T07:32:57;100459.22;;;21.26;48.82
44825;BME280;30542;47.928;2.138;2023-05-22T07:37:58;100456.81;;;21.29;48.95
44825;BME280;30542;47.928;2.138;2023-05-22T07:42:58;100460.28;;;21.30;49.21
44825;BME280;30542;47.928;2.138;2023-05-22T07:47:58;100454.94;;;21.30;49.02
44825;BME280;30542;47.928;2.138;2023-05-22T07:53:00;100454.94;;;21.30;49.16
44825;BME280;30542;47.928;2.138;2023-05-22T07:58:01;100459.22;;;21.31;49.11
44825;BME280;30542;47.928;2.138;2023-05-22T08:03:03;100458.41;;;21.30;48.92
44825;BME280;30542;47.928;2.138;2023-05-22T08:08:03;100453.63;;;21.32;48.68
44825;BME280;30542;47.928;2.138;2023-05-22T08:13:03;100452.56;;;21.33;48.72
44825;BME280;30542;47.928;2.138;2023-05-22T08:18:06;100457.63;;;21.35;48.38
44825;BME280;30542;47.928;2.138;2023-05-22T08:23:07;100451.75;;;21.33;48.82
44825;BME280;30542;47.928;2.138;2023-05-22T08:28:07;100462.47;;;21.38;48.65
44825;BME280;30542;47.928;2.138;2023-05-22T08:33:08;100465.13;;;21.38;48.68
44825;BME280;30542;47.928;2.138;2023-05-22T08:38:08;100462.19;;;21.40;48.56
44825;BME280;30542;47.928;2.138;2023-05-22T08:43:08;100455.50;;;21.42;48.97
44825;BME280;30542;47.928;2.138;2023-05-22T08:48:12;100461.91;;;21.46;50.03
44825;BME280;30542;47.928;2.138;2023-05-22T08:53:14;100456.53;;;21.51;50.52
44825;BME280;30542;47.928;2.138;2023-05-22T08:58:15;100457.09;;;21.48;50.24
44825;BME280;30542;47.928;2.138;2023-05-22T09:03:17;100462.47;;;21.48;50.19
44825;BME280;30542;47.928;2.138;2023-05-22T09:08:20;100461.63;;;21.48;50.13
44825;BME280;30542;47.928;2.138;2023-05-22T09:13:28;100470.50;;;21.48;50.20
44825;BME280;30542;47.928;2.138;2023-05-22T09:18:30;100466.72;;;21.54;50.01
44825;BME280;30542;47.928;2.138;2023-05-22T09:23:31;100468.31;;;21.55;50.01
44825;BME280;30542;47.928;2.138;2023-05-22T09:28:32;100468.88;;;21.57;50.02
44825;BME280;30542;47.928;2.138;2023-05-22T09:33:35;100472.06;;;21.59;50.21
44825;BME280;30542;47.928;2.138;2023-05-22T09:38:36;100462.41;;;21.64;50.32
44825;BME280;30542;47.928;2.138;2023-05-22T09:43:37;100461.34;;;21.59;50.88
44825;BME280;30542;47.928;2.138;2023-05-22T09:48:37;100469.13;;;21.66;50.58
44825;BME280;30542;47.928;2.138;2023-05-22T09:53:40;100462.94;;;21.71;50.47
44825;BME280;30542;47.928;2.138;2023-05-22T09:58:43;100465.91;;;21.74;50.57
44825;BME280;30542;47.928;2.138;2023-05-22T10:03:46;100456.47;;;21.77;50.86
44825;BME280;30542;47.928;2.138;2023-05-22T10:08:49;100467.22;;;21.82;50.71
44825;BME280;30542;47.928;2.138;2023-05-22T10:13:51;100465.34;;;21.82;51.09
44825;BME280;30542;47.928;2.138;2023-05-22T10:18:52;100461.28;;;21.85;51.30
44825;BME280;30542;47.928;2.138;2023-05-22T10:23:53;100461.84;;;21.87;51.09
44825;BME280;30542;47.928;2.138;2023-05-22T10:29:03;100452.41;;;21.90;51.32
44825;BME280;30542;47.928;2.138;2023-05-22T10:34:10;100456.44;;;21.92;51.34
44825;BME280;30542;47.928;2.138;2023-05-22T10:39:33;100461.00;;;21.97;51.55
44825;BME280;30542;47.928;2.138;2023-05-22T10:44:37;100454.81;;;22.01;51.96
44825;BME280;30542;47.928;2.138;2023-05-22T10:49:42;100448.38;;;22.02;51.82
44825;BME280;30542;47.928;2.138;2023-05-22T10:54:46;100447.00;;;22.05;51.92
44825;BME280;30542;47.928;2.138;2023-05-22T11:00:05;100443.25;;;22.06;51.60
44825;BME280;30542;47.928;2.138;2023-05-22T11:10:13;100432.28;;;22.02;52.15
44825;BME280;30542;47.928;2.138;2023-05-22T11:15:13;100427.44;;;22.04;52.27
44825;BME280;30542;47.928;2.138;2023-05-22T11:20:20;100424.25;;;22.02;52.24
44825;BME280;30542;47.928;2.138;2023-05-22T11:25:21;100426.94;;;22.02;52.35
44825;BME280;30542;47.928;2.138;2023-05-22T11:30:26;100424.25;;;22.02;52.23
44825;BME280;30542;47.928;2.138;2023-05-22T11:35:27;100426.91;;;22.07;52.45
44825;BME280;30542;47.928;2.138;2023-05-22T11:40:27;100416.97;;;22.13;52.41
44825;BME280;30542;47.928;2.138;2023-05-22T11:45:28;100419.63;;;22.18;52.48
44825;BME280;30542;47.928;2.138;2023-05-22T11:50:28;100420.16;;;22.20;52.14
44825;BME280;30542;47.928;2.138;2023-05-22T11:55:29;100425.25;;;22.22;51.95
44825;BME280;30542;47.928;2.138;2023-05-22T12:00:30;100424.16;;;22.23;52.03
44825;BME280;30542;47.928;2.138;2023-05-22T12:05:31;100430.88;;;22.25;52.09
44825;BME280;30542;47.928;2.138;2023-05-22T12:10:31;100420.41;;;22.24;51.77
44825;BME280;30542;47.928;2.138;2023-05-22T12:15:31;100412.34;;;22.29;52.38
44825;BME280;30542;47.928;2.138;2023-05-22T12:20:32;100420.91;;;22.31;51.90
44825;BME280;30542;47.928;2.138;2023-05-22T12:25:34;100420.09;;;22.30;52.00
44825;BME280;30542;47.928;2.138;2023-05-22T12:30:40;100425.19;;;22.32;51.84
44825;BME280;30542;47.928;2.138;2023-05-22T12:35:41;100424.66;;;22.30;51.53
44825;BME280;30542;47.928;2.138;2023-05-22T12:40:41;100413.94;;;22.30;51.30
44825;BME280;30542;47.928;2.138;2023-05-22T12:45:42;100407.75;;;22.29;51.62
44825;BME280;30542;47.928;2.138;2023-05-22T12:50:43;100404.78;;;22.31;51.67
44825;BME280;30542;47.928;2.138;2023-05-22T12:55:43;100408.28;;;22.37;51.58
44825;BME280;30542;47.928;2.138;2023-05-22T13:00:44;100406.38;;;22.37;51.43
44825;BME280;30542;47.928;2.138;2023-05-22T13:05:44;100412.81;;;22.41;51.45
44825;BME280;30542;47.928;2.138;2023-05-22T13:10:44;100409.31;;;22.41;51.17
44825;BME280;30542;47.928;2.138;2023-05-22T13:15:45;100411.72;;;22.42;51.03
44825;BME280;30542;47.928;2.138;2023-05-22T13:20:45;100401.50;;;22.44;51.04
44825;BME280;30542;47.928;2.138;2023-05-22T13:25:45;100396.41;;;22.43;50.82
44825;BME280;30542;47.928;2.138;2023-05-22T13:30:46;100397.75;;;22.45;50.96
44825;BME280;30542;47.928;2.138;2023-05-22T13:35:46;100396.91;;;22.50;50.93
44825;BME280;30542;47.928;2.138;2023-05-22T13:40:46;100389.91;;;22.54;51.60
44825;BME280;30542;47.928;2.138;2023-05-22T13:45:47;100397.97;;;22.54;51.20
44825;BME280;30542;47.928;2.138;2023-05-22T13:50:47;100390.41;;;22.56;51.11
44825;BME280;30542;47.928;2.138;2023-05-22T13:55:47;100394.44;;;22.58;51.09
44825;BME280;30542;47.928;2.138;2023-05-22T14:00:48;100389.59;;;22.61;50.90
44825;BME280;30542;47.928;2.138;2023-05-22T14:05:48;100386.09;;;22.60;50.58
44825;BME280;30542;47.928;2.138;2023-05-22T14:10:49;100391.19;;;22.62;50.42
44825;BME280;30542;47.928;2.138;2023-05-22T14:15:49;100385.28;;;22.59;50.22
44825;BME280;30542;47.928;2.138;2023-05-22T14:20:49;100384.19;;;22.66;50.05
44825;BME280;30542;47.928;2.138;2023-05-22T14:25:50;100378.28;;;22.64;50.46
44825;BME280;30542;47.928;2.138;2023-05-22T14:30:50;100380.41;;;22.67;49.98
44825;BME280;30542;47.928;2.138;2023-05-22T14:35:50;100378.78;;;22.71;50.16
44825;BME280;30542;47.928;2.138;2023-05-22T14:40:51;100367.75;;;22.72;49.99
44825;BME280;30542;47.928;2.138;2023-05-22T14:45:52;100366.94;;;22.72;49.69
44825;BME280;30542;47.928;2.138;2023-05-22T14:50:52;100358.88;;;22.72;49.74
44825;BME280;30542;47.928;2.138;2023-05-22T14:55:52;100355.66;;;22.75;49.81
44825;BME280;30542;47.928;2.138;2023-05-22T15:00:53;100363.94;;;22.78;49.75
44825;BME280;30542;47.928;2.138;2023-05-22T15:05:53;100360.41;;;22.83;49.46
44825;BME280;30542;47.928;2.138;2023-05-22T15:10:53;100353.41;;;22.87;49.80
44825;BME280;30542;47.928;2.138;2023-05-22T15:15:54;100343.16;;;22.89;49.79
44825;BME280;30542;47.928;2.138;2023-05-22T15:20:54;100335.38;;;22.93;50.10
44825;BME280;30542;47.928;2.138;2023-05-22T15:25:55;100331.34;;;22.95;50.21
44825;BME280;30542;47.928;2.138;2023-05-22T15:30:56;100323.78;;;22.97;50.28
44825;BME280;30542;47.928;2.138;2023-05-22T15:35:57;100323.75;;;23.02;50.06
44825;BME280;30542;47.928;2.138;2023-05-22T15:40:57;100328.78;;;23.09;49.48
44825;BME280;30542;47.928;2.138;2023-05-22T15:45:57;100326.63;;;23.11;49.33
44825;BME280;30542;47.928;2.138;2023-05-22T15:50:59;100329.56;;;23.10;49.26
44825;BME280;30542;47.928;2.138;2023-05-22T15:55:59;100326.38;;;23.07;49.39
44825;BME280;30542;47.928;2.138;2023-05-22T16:00:59;100336.03;;;23.08;49.64
44825;BME280;30542;47.928;2.138;2023-05-22T16:06:00;100327.19;;;23.08;49.14
44825;BME280;30542;47.928;2.138;2023-05-22T16:11:01;100326.66;;;23.06;49.32
44825;BME280;30542;47.928;2.138;2023-05-22T16:16:01;100338.22;;;23.06;49.31
44825;BME280;30542;47.928;2.138;2023-05-22T16:21:04;100333.41;;;23.03;48.85
44825;BME280;30542;47.928;2.138;2023-05-22T16:26:05;100339.06;;;23.02;48.31
44825;BME280;30542;47.928;2.138;2023-05-22T16:31:05;100338.53;;;23.00;48.31
44825;BME280;30542;47.928;2.138;2023-05-22T16:36:06;100334.25;;;22.99;48.03
44825;BME280;30542;47.928;2.138;2023-05-22T16:41:06;100333.97;;;23.00;48.00
44825;BME280;30542;47.928;2.138;2023-05-22T16:46:06;100337.22;;;22.97;48.00
44825;BME280;30542;47.928;2.138;2023-05-22T16:51:07;100343.91;;;23.00;47.93
44825;BME280;30542;47.928;2.138;2023-05-22T16:56:07;100339.34;;;23.00;48.27
44825;BME280;30542;47.928;2.138;2023-05-22T17:01:08;100353.31;;;22.97;48.20
44825;BME280;30542;47.928;2.138;2023-05-22T17:06:08;100344.75;;;22.95;48.51
44825;BME280;30542;47.928;2.138;2023-05-22T17:11:08;100348.53;;;22.94;48.38
44825;BME280;30542;47.928;2.138;2023-05-22T17:16:09;100349.34;;;22.95;48.21
44825;BME280;30542;47.928;2.138;2023-05-22T17:21:09;100336.47;;;22.92;48.22
44825;BME280;30542;47.928;2.138;2023-05-22T17:26:09;100346.34;;;22.96;48.70
44825;BME280;30542;47.928;2.138;2023-05-22T17:31:10;100348.53;;;22.94;48.48
44825;BME280;30542;47.928;2.138;2023-05-22T17:36:10;100360.31;;;22.98;48.63
44825;BME280;30542;47.928;2.138;2023-05-22T17:41:10;100337.56;;;22.86;48.83
44825;BME280;30542;47.928;2.138;2023-05-22T17:46:11;100358.19;;;22.95;48.88
44825;BME280;30542;47.928;2.138;2023-05-22T17:51:11;100362.22;;;22.93;48.70
44825;BME280;30542;47.928;2.138;2023-05-22T17:56:11;100377.28;;;22.94;48.65
44825;BME280;30542;47.928;2.138;2023-05-22T18:01:12;100369.50;;;22.92;48.70
44825;BME280;30542;47.928;2.138;2023-05-22T18:06:12;100381.59;;;22.90;48.72
44825;BME280;30542;47.928;2.138;2023-05-22T18:11:12;100390.47;;;22.90;48.24
44825;BME280;30542;47.928;2.138;2023-05-22T18:16:16;100384.09;;;22.81;48.33
44825;BME280;30542;47.928;2.138;2023-05-22T18:21:16;100406.03;;;22.88;48.07
44825;BME280;30542;47.928;2.138;2023-05-22T18:26:17;100400.66;;;22.88;48.07
44825;BME280;30542;47.928;2.138;2023-05-22T18:31:17;100404.44;;;22.87;47.83
44825;BME280;30542;47.928;2.138;2023-05-22T18:36:17;100415.47;;;22.86;48.11
44825;BME280;30542;47.928;2.138;2023-05-22T18:41:18;100419.50;;;22.83;47.90
44825;BME280;30542;47.928;2.138;2023-05-22T18:46:18;100424.06;;;22.82;47.82
44825;BME280;30542;47.928;2.138;2023-05-22T18:51:19;100426.22;;;22.80;48.05
44825;BME280;30542;47.928;2.138;2023-05-22T18:56:19;100433.22;;;22.81;48.20
44825;BME280;30542;47.928;2.138;2023-05-22T19:01:20;100443.66;;;22.83;48.56
44825;BME280;30542;47.928;2.138;2023-05-22T19:06:20;100402.19;;;22.60;48.62
44825;BME280;30542;47.928;2.138;2023-05-22T19:11:22;100438.25;;;22.88;49.55
44825;BME280;30542;47.928;2.138;2023-05-22T19:16:22;100446.31;;;22.88;49.30
44825;BME280;30542;47.928;2.138;2023-05-22T19:21:22;100457.06;;;22.88;49.10
44825;BME280;30542;47.928;2.138;2023-05-22T19:26:23;100472.91;;;22.90;49.40
44825;BME280;30542;47.928;2.138;2023-05-22T19:31:25;100478.28;;;22.90;49.19
44825;BME280;30542;47.928;2.138;2023-05-22T19:36:26;100490.88;;;22.89;49.10
44825;BME280;30542;47.928;2.138;2023-05-22T19:41:26;100497.34;;;22.93;49.19
44825;BME280;30542;47.928;2.138;2023-05-22T19:46:27;100512.66;;;22.93;49.00
44825;BME280;30542;47.928;2.138;2023-05-22T19:51:27;100515.34;;;22.93;49.14
44825;BME280;30542;47.928;2.138;2023-05-22T19:56:27;100527.72;;;22.94;49.36
44825;BME280;30542;47.928;2.138;2023-05-22T20:01:29;100531.19;;;22.94;49.68
44825;BME280;30542;47.928;2.138;2023-05-22T20:06:29;100547.31;;;22.94;49.53
44825;BME280;30542;47.928;2.138;2023-05-22T20:11:32;100563.44;;;22.94;49.71
44825;BME280;30542;47.928;2.138;2023-05-22T20:16:32;100565.06;;;22.85;49.56
44825;BME280;30542;47.928;2.138;2023-05-22T20:21:33;100575.50;;;22.92;49.69
44825;BME280;30542;47.928;2.138;2023-05-22T20:26:33;100588.66;;;22.93;49.93
44825;BME280;30542;47.928;2.138;2023-05-22T20:31:33;100598.84;;;22.96;49.86
44825;BME280;30542;47.928;2.138;2023-05-22T20:36:34;100594.81;;;22.99;49.72
44825;BME280;30542;47.928;2.138;2023-05-22T20:41:35;100602.88;;;22.99;49.51
44825;BME280;30542;47.928;2.138;2023-05-22T20:46:35;100607.47;;;22.98;49.63
44825;BME280;30542;47.928;2.138;2023-05-22T20:51:35;100613.88;;;22.97;49.77
44825;BME280;30542;47.928;2.138;2023-05-22T20:56:36;100619.53;;;22.96;50.00
44825;BME280;30542;47.928;2.138;2023-05-22T21:01:36;100619.84;;;22.94;49.85
44825;BME280;30542;47.928;2.138;2023-05-22T21:06:37;100614.72;;;22.93;49.72
44825;BME280;30542;47.928;2.138;2023-05-22T21:11:38;100627.34;;;22.92;49.95
44825;BME280;30542;47.928;2.138;2023-05-22T21:16:38;100632.22;;;22.90;49.88
44825;BME280;30542;47.928;2.138;2023-05-22T21:21:39;100642.66;;;22.92;49.75
44825;BME280;30542;47.928;2.138;2023-05-22T21:26:40;100635.69;;;22.91;50.00
44825;BME280;30542;47.928;2.138;2023-05-22T21:31:41;100635.41;;;22.92;49.97
44825;BME280;30542;47.928;2.138;2023-05-22T21:36:41;100645.34;;;22.92;50.07
44825;BME280;30542;47.928;2.138;2023-05-22T21:41:41;100655.00;;;22.93;50.01
44825;BME280;30542;47.928;2.138;2023-05-22T21:46:42;100654.22;;;22.92;50.13
44825;BME280;30542;47.928;2.138;2023-05-22T21:51:42;100661.47;;;22.92;50.11
44825;BME280;30542;47.928;2.138;2023-05-22T21:56:42;100666.31;;;22.95;49.98
44825;BME280;30542;47.928;2.138;2023-05-22T22:01:43;100667.09;;;22.95;49.75
44825;BME280;30542;47.928;2.138;2023-05-22T22:06:43;100666.00;;;22.96;49.99
44825;BME280;30542;47.928;2.138;2023-05-22T22:11:43;100665.50;;;22.94;50.39
44825;BME280;30542;47.928;2.138;2023-05-22T22:16:44;100659.59;;;22.92;49.79
44825;BME280;30542;47.928;2.138;2023-05-22T22:21:45;100672.22;;;22.92;50.00
44825;BME280;30542;47.928;2.138;2023-05-22T22:26:46;100670.63;;;22.91;50.09
44825;BME280;30542;47.928;2.138;2023-05-22T22:31:48;100682.41;;;22.90;49.90
44825;BME280;30542;47.928;2.138;2023-05-22T22:36:48;100682.41;;;22.90;50.23
44825;BME280;30542;47.928;2.138;2023-05-22T22:41:49;100684.28;;;22.89;50.22
44825;BME280;30542;47.928;2.138;2023-05-22T22:46:50;100689.66;;;22.89;50.03
44825;BME280;30542;47.928;2.138;2023-05-22T22:51:50;100685.63;;;22.87;49.76
44825;BME280;30542;47.928;2.138;2023-05-22T22:56:51;100690.47;;;22.84;50.28
44825;BME280;30542;47.928;2.138;2023-05-22T23:01:51;100696.13;;;22.83;50.19
44825;BME280;30542;47.928;2.138;2023-05-22T23:06:52;100694.53;;;22.82;50.29
44825;BME280;30542;47.928;2.138;2023-05-22T23:11:54;100691.56;;;22.83;50.90
44825;BME280;30542;47.928;2.138;2023-05-22T23:16:54;100699.34;;;22.85;51.87
44825;BME280;30542;47.928;2.138;2023-05-22T23:21:55;100692.91;;;22.86;52.70
44825;BME280;30542;47.928;2.138;2023-05-22T23:26:55;100704.72;;;22.85;52.95
44825;BME280;30542;47.928;2.138;2023-05-22T23:31:55;100704.97;;;22.83;53.04
44825;BME280;30542;47.928;2.138;2023-05-22T23:36:56;100705.78;;;22.84;52.96
44825;BME280;30542;47.928;2.138;2023-05-22T23:41:56;100712.25;;;22.83;52.82
44825;BME280;30542;47.928;2.138;2023-05-22T23:46:56;100717.31;;;22.84;52.09
44825;BME280;30542;47.928;2.138;2023-05-22T23:51:57;100720.28;;;22.83;51.88
44825;BME280;30542;47.928;2.138;2023-05-22T23:56:57;100713.84;;;22.84;51.80
